Private Wetterstation Wechselburg
Wetterdaten: Woche 17.04.23 - 23.04.23 (KW16)
Datum Zeit Temp. +2m Bodentemp. Temp.+5cm Temp. Wind Windchill X Diff Temp. Feuchte +2m Feuchte +5cm Luftdruck Regen Wind Richtung Sonnenschein Taupunkt Windchill Windben
17.04.2023 00:00 7,6 C 12,2 C 8,2 C 8,3 C 8,3 C 0,7 C 88 % 89 % 1020,7 hPa 0,7 l/m 0,0 km/h (0 Bft) N 0,00 h 5,8 C 8,3 C 0,0 km/h (0 Bft)
17.04.2023 01:00 7,3 C 12,2 C 8,0 C 8,1 C 8,1 C 0,8 C 88 % 89 % 1020,7 hPa 0,0 l/m 0,1 km/h (0 Bft) N 0,00 h 5,5 C 8,1 C 0,3 km/h (0 Bft)
17.04.2023 02:00 7,1 C 12,1 C 7,8 C 7,9 C 7,9 C 0,9 C 88 % 89 % 1020,6 hPa 0,0 l/m 0,0 km/h (0 Bft) N 0,00 h 5,2 C 7,9 C 0,3 km/h (0 Bft)
17.04.2023 03:00 6,7 C 12,1 C 7,6 C 7,7 C 7,7 C 1,0 C 89 % 89 % 1020,6 hPa 0,0 l/m 0,2 km/h (0 Bft) N 0,00 h 5,0 C 7,7 C 1,6 km/h (1 Bft)
17.04.2023 04:00 6,5 C 12,1 C 7,3 C 7,5 C 7,5 C 1,0 C 89 % 89 % 1020,8 hPa 0,7 l/m 0,1 km/h (0 Bft) N 0,00 h 4,8 C 7,5 C 0,6 km/h (0 Bft)
17.04.2023 05:00 6,3 C 12,1 C 7,2 C 7,4 C 7,4 C 1,1 C 89 % 89 % 1020,9 hPa 0,0 l/m 0,1 km/h (0 Bft) N 0,00 h 4,6 C 7,4 C 0,4 km/h (0 Bft)
17.04.2023 06:00 6,1 C 12,0 C 7,1 C 7,3 C 7,3 C 1,1 C 89 % 89 % 1020,9 hPa 0,7 l/m 0,3 km/h (0 Bft) N 0,58 h 4,5 C 7,3 C 0,9 km/h (0 Bft)
17.04.2023 07:00 5,9 C 11,9 C 7,0 C 7,2 C 7,2 C 1,3 C 89 % 89 % 1021,3 hPa 0,7 l/m 0,7 km/h (0 Bft) NW 0,08 h 4,2 C 7,2 C 0,8 km/h (0 Bft)
17.04.2023 08:00 5,9 C 11,8 C 7,1 C 7,3 C 7,3 C 1,5 C 89 % 89 % 1021,7 hPa 0,0 l/m 0,9 km/h (0 Bft) W 0,00 h 4,2 C 7,3 C 2,9 km/h (1 Bft)
17.04.2023 09:00 5,9 C 11,8 C 7,2 C 7,6 C 7,6 C 1,7 C 89 % 89 % 1022,0 hPa 0,7 l/m 1,2 km/h (1 Bft) W 0,00 h 4,2 C 7,6 C 3,4 km/h (1 Bft)
17.04.2023 10:00 5,9 C 11,8 C 7,4 C 7,9 C 7,9 C 1,9 C 89 % 89 % 1022,8 hPa 0,0 l/m 0,8 km/h (0 Bft) N-NO 0,00 h 4,3 C 7,9 C 1,9 km/h (1 Bft)
17.04.2023 11:00 6,1 C 11,8 C 7,7 C 8,5 C 8,5 C 2,4 C 89 % 89 % 1023,1 hPa 0,0 l/m 0,6 km/h (0 Bft) NO 0,00 h 4,4 C 8,5 C 1,2 km/h (1 Bft)
17.04.2023 12:00 6,5 C 11,8 C 8,5 C 10,3 C 10,3 C 3,9 C 89 % 90 % 1023,3 hPa 0,0 l/m 0,6 km/h (0 Bft) N-NO 0,75 h 4,8 C 10,3 C 0,9 km/h (0 Bft)
17.04.2023 13:00 7,1 C 11,6 C 9,1 C 12,0 C 12,0 C 4,9 C 89 % 85 % 1023,2 hPa 0,0 l/m 1,2 km/h (1 Bft) NO 1,00 h 5,4 C 12,0 C 1,6 km/h (1 Bft)
17.04.2023 14:00 8,2 C 11,6 C 8,9 C 11,2 C 11,2 C 3,0 C 88 % 75 % 1023,7 hPa 0,0 l/m 0,1 km/h (0 Bft) N 0,25 h 6,3 C 11,2 C 0,0 km/h (0 Bft)
17.04.2023 15:00 8,6 C 11,6 C 8,6 C 10,3 C 10,3 C 1,7 C 88 % 75 % 1023,8 hPa 0,0 l/m 0,0 km/h (0 Bft) N 0,00 h 6,6 C 10,3 C 0,0 km/h (0 Bft)
17.04.2023 16:00 8,9 C 11,5 C 8,8 C 11,1 C 11,1 C 2,2 C 84 % 68 % 1023,7 hPa 0,0 l/m 0,0 km/h (0 Bft) N 0,00 h 6,3 C 11,1 C 0,3 km/h (0 Bft)
17.04.2023 17:00 9,1 C 11,5 C 8,5 C 10,9 C 10,9 C 1,8 C 80 % 69 % 1023,8 hPa 0,0 l/m 0,0 km/h (0 Bft) N 0,00 h 5,8 C 10,9 C 0,0 km/h (0 Bft)
17.04.2023 18:00 9,1 C 11,5 C 8,4 C 10,9 C 10,9 C 1,8 C 79 % 68 % 1024,4 hPa 0,0 l/m 0,1 km/h (0 Bft) N 0,17 h 5,6 C 10,9 C 0,5 km/h (0 Bft)
17.04.2023 19:00 8,2 C 11,5 C 7,6 C 8,8 C 8,8 C 0,6 C 81 % 71 % 1024,5 hPa 0,0 l/m 0,1 km/h (0 Bft) N 0,08 h 5,1 C 8,8 C 0,0 km/h (0 Bft)
17.04.2023 20:00 7,6 C 11,5 C 7,0 C 7,6 C 7,5 C 0,0 C 83 % 77 % 1024,7 hPa 0,0 l/m 0,0 km/h (0 Bft) N 0,00 h 4,9 C 7,5 C 0,0 km/h (0 Bft)
17.04.2023 21:00 7,1 C 11,5 C 6,4 C 6,9 C 6,7 C 0,0 C 84 % 82 % 1024,9 hPa 0,0 l/m 0,0 km/h (0 Bft) N 0,00 h 4,6 C 6,7 C 0,0 km/h (0 Bft)
17.04.2023 22:00 6,9 C 11,5 C 6,5 C 7,0 C 6,9 C 0,1 C 86 % 84 % 1024,9 hPa 0,0 l/m 0,0 km/h (0 Bft) N 0,00 h 4,6 C 6,9 C 0,0 km/h (0 Bft)
17.04.2023 23:00 6,8 C 11,5 C 6,5 C 6,8 C 6,8 C 0,0 C 87 % 87 % 1024,9 hPa 0,0 l/m 0,0 km/h (0 Bft) N 0,00 h 4,7 C 6,8 C 0,0 km/h (0 Bft)
18.04.2023 00:00 6,7 C 11,6 C 6,4 C 6,7 C 6,7 C 0,1 C 87 % 86 % 1025,0 hPa 0,0 l/m 0,0 km/h (0 Bft) N 0,00 h 4,7 C 6,7 C 0,0 km/h (0 Bft)
18.04.2023 01:00 6,5 C 11,6 C 6,3 C 6,6 C 6,6 C 0,0 C 88 % 88 % 1024,9 hPa 0,0 l/m 0,0 km/h (0 Bft) N 0,00 h 4,7 C 6,6 C 0,0 km/h (0 Bft)
18.04.2023 02:00 6,3 C 11,7 C 6,2 C 6,3 C 6,3 C 0,0 C 88 % 88 % 1024,8 hPa 0,0 l/m 0,0 km/h (0 Bft) N 0,00 h 4,5 C 6,3 C 0,0 km/h (0 Bft)
18.04.2023 03:00 6,1 C 11,6 C 6,2 C 6,4 C 6,4 C 0,3 C 88 % 88 % 1024,3 hPa 0,0 l/m 0,0 km/h (0 Bft) N 0,00 h 4,2 C 6,4 C 0,0 km/h (0 Bft)
18.04.2023 04:00 6,0 C 11,6 C 6,5 C 6,7 C 6,7 C 0,7 C 88 % 88 % 1024,3 hPa 0,0 l/m 0,0 km/h (0 Bft) N 0,00 h 4,2 C 6,7 C 0,0 km/h (0 Bft)
18.04.2023 05:00 5,9 C 11,5 C 6,7 C 6,8 C 6,8 C 0,9 C 88 % 88 % 1024,2 hPa 0,0 l/m 1,2 km/h (1 Bft) O-NO 0,00 h 4,2 C 6,8 C 1,8 km/h (1 Bft)
18.04.2023 06:00 5,8 C 11,5 C 6,6 C 6,8 C 6,8 C 1,0 C 89 % 88 % 1024,4 hPa 0,0 l/m 2,5 km/h (1 Bft) O-NO 0,67 h 4,1 C 6,8 C 3,1 km/h (1 Bft)
18.04.2023 07:00 5,5 C 11,5 C 6,2 C 6,7 C 6,7 C 1,2 C 89 % 88 % 1024,5 hPa 0,0 l/m 2,4 km/h (1 Bft) O-NO 0,08 h 3,9 C 6,7 C 3,5 km/h (1 Bft)
18.04.2023 08:00 5,5 C 11,4 C 6,1 C 6,6 C 6,6 C 1,2 C 89 % 88 % 1024,9 hPa 0,0 l/m 2,5 km/h (1 Bft) O-NO 0,00 h 3,8 C 6,6 C 3,1 km/h (1 Bft)
18.04.2023 09:00 5,2 C 11,4 C 5,8 C 6,1 C 6,1 C 0,9 C 89 % 88 % 1025,0 hPa 0,0 l/m 1,8 km/h (1 Bft) NO 0,00 h 3,5 C 6,1 C 3,0 km/h (1 Bft)
18.04.2023 10:00 5,1 C 11,3 C 6,1 C 6,7 C 6,7 C 1,6 C 89 % 88 % 1025,4 hPa 0,0 l/m 1,1 km/h (1 Bft) N-NO 0,00 h 3,5 C 6,7 C 1,9 km/h (1 Bft)
18.04.2023 11:00 5,3 C 11,3 C 6,2 C 7,2 C 7,2 C 1,9 C 89 % 88 % 1025,9 hPa 0,0 l/m 1,1 km/h (1 Bft) O-NO 0,00 h 3,6 C 7,2 C 2,4 km/h (1 Bft)
18.04.2023 12:00 5,8 C 11,1 C 7,0 C 8,4 C 8,4 C 2,5 C 89 % 88 % 1025,6 hPa 0,0 l/m 0,5 km/h (0 Bft) N 0,00 h 4,2 C 8,4 C 0,8 km/h (0 Bft)
18.04.2023 13:00 6,8 C 11,1 C 7,7 C 9,1 C 9,1 C 2,3 C 89 % 85 % 1025,7 hPa 0,0 l/m 0,5 km/h (0 Bft) N 0,00 h 5,1 C 9,1 C 0,5 km/h (0 Bft)
18.04.2023 14:00 7,8 C 11,3 C 8,2 C 8,8 C 8,8 C 0,9 C 89 % 83 % 1025,9 hPa 0,0 l/m 0,0 km/h (0 Bft) N 0,00 h 6,1 C 8,8 C 0,0 km/h (0 Bft)
18.04.2023 15:00 8,1 C 11,4 C 8,1 C 8,1 C 8,1 C 0,0 C 89 % 81 % 1025,7 hPa 0,0 l/m 0,1 km/h (0 Bft) N 0,00 h 6,3 C 8,1 C 0,2 km/h (0 Bft)
18.04.2023 16:00 8,3 C 11,3 C 8,4 C 8,6 C 8,6 C 0,3 C 88 % 79 % 1025,6 hPa 0,0 l/m 0,3 km/h (0 Bft) NO 0,00 h 6,5 C 8,6 C 1,3 km/h (1 Bft)
18.04.2023 17:00 8,5 C 11,3 C 8,4 C 8,8 C 8,8 C 0,4 C 88 % 78 % 1025,5 hPa 0,0 l/m 2,3 km/h (1 Bft) O-NO 0,00 h 6,6 C 8,8 C 2,5 km/h (1 Bft)
18.04.2023 18:00 8,4 C 11,4 C 8,4 C 8,7 C 8,7 C 0,2 C 88 % 80 % 1025,3 hPa 0,0 l/m 0,8 km/h (0 Bft) O-NO 0,00 h 6,6 C 8,7 C 1,1 km/h (0 Bft)
18.04.2023 19:00 8,3 C 11,6 C 8,3 C 8,5 C 8,5 C 0,2 C 89 % 88 % 1025,5 hPa 0,0 l/m 0,0 km/h (0 Bft) N 0,08 h 6,6 C 8,5 C 0,0 km/h (0 Bft)
18.04.2023 20:00 8,3 C 11,6 C 8,2 C 8,5 C 8,5 C 0,2 C 89 % 89 % 1025,7 hPa 0,0 l/m 0,0 km/h (0 Bft) N 0,00 h 6,6 C 8,5 C 0,0 km/h (0 Bft)
18.04.2023 21:00 8,1 C 11,6 C 8,0 C 8,2 C 8,2 C 0,1 C 89 % 89 % 1025,9 hPa 0,0 l/m 0,0 km/h (0 Bft) N 0,00 h 6,4 C 8,2 C 0,0 km/h (0 Bft)
18.04.2023 22:00 8,0 C 11,7 C 7,9 C 8,1 C 8,1 C 0,1 C 89 % 89 % 1025,7 hPa 0,0 l/m 0,0 km/h (0 Bft) N 0,00 h 6,3 C 8,1 C 0,0 km/h (0 Bft)
18.04.2023 23:00 7,9 C 11,7 C 7,8 C 8,1 C 8,1 C 0,2 C 89 % 89 % 1025,3 hPa 0,0 l/m 0,0 km/h (0 Bft) N 0,00 h 6,2 C 8,1 C 0,0 km/h (0 Bft)
19.04.2023 00:00 7,6 C 11,7 C 7,6 C 7,9 C 7,9 C 0,3 C 89 % 89 % 1024,7 hPa 0,0 l/m 0,0 km/h (0 Bft) N 0,00 h 5,9 C 7,9 C 0,0 km/h (0 Bft)
19.04.2023 01:00 7,5 C 11,7 C 7,7 C 8,0 C 8,0 C 0,5 C 89 % 89 % 1024,6 hPa 0,0 l/m 0,0 km/h (0 Bft) N 0,00 h 5,8 C 8,0 C 0,0 km/h (0 Bft)
19.04.2023 02:00 7,2 C 11,7 C 7,5 C 7,8 C 7,8 C 0,6 C 89 % 89 % 1023,9 hPa 0,0 l/m 0,0 km/h (0 Bft) N 0,00 h 5,5 C 7,8 C 0,0 km/h (0 Bft)
19.04.2023 03:00 7,0 C 11,6 C 7,3 C 7,3 C 7,3 C 0,3 C 89 % 89 % 1023,3 hPa 0,0 l/m 0,1 km/h (0 Bft) N 0,00 h 5,3 C 7,3 C 0,3 km/h (0 Bft)
19.04.2023 04:00 6,7 C 11,4 C 6,8 C 7,0 C 7,0 C 0,3 C 89 % 78 % 1023,1 hPa 0,0 l/m 0,6 km/h (0 Bft) N-NW 0,00 h 5,0 C 7,0 C 2,4 km/h (1 Bft)
19.04.2023 05:00 6,3 C 11,4 C 6,1 C 6,4 C 6,4 C 0,1 C 89 % 75 % 1023,4 hPa 0,0 l/m 0,4 km/h (0 Bft) N 0,00 h 4,6 C 6,4 C 0,9 km/h (0 Bft)
19.04.2023 06:00 5,9 C 11,4 C 5,7 C 5,9 C 5,9 C 0,1 C 88 % 76 % 1023,0 hPa 0,0 l/m 0,9 km/h (0 Bft) N-NW 0,00 h 4,1 C 5,9 C 2,0 km/h (1 Bft)
19.04.2023 07:00 5,4 C 11,2 C 5,3 C 5,7 C 5,7 C 0,3 C 88 % 74 % 1022,8 hPa 0,0 l/m 0,9 km/h (0 Bft) NW 0,00 h 3,6 C 5,7 C 1,1 km/h (1 Bft)
19.04.2023 08:00 5,6 C 11,0 C 5,8 C 7,4 C 7,4 C 1,9 C 85 % 60 % 1023,1 hPa 0,0 l/m 0,5 km/h (0 Bft) N-NW 0,08 h 3,2 C 7,4 C 0,7 km/h (0 Bft)
19.04.2023 09:00 6,6 C 10,8 C 6,3 C 10,7 C 10,7 C 4,1 C 73 % 47 % 1023,1 hPa 0,0 l/m 0,0 km/h (0 Bft) N 0,75 h 2,2 C 10,7 C 0,8 km/h (0 Bft)
19.04.2023 10:00 7,6 C 10,7 C 7,5 C 12,0 C 12,0 C 4,4 C 66 % 44 % 1023,2 hPa 0,0 l/m 0,1 km/h (0 Bft) N 1,00 h 1,7 C 12,0 C 0,0 km/h (0 Bft)
19.04.2023 11:00 8,4 C 10,7 C 10,9 C 11,5 C 11,5 C 3,1 C 66 % 40 % 1023,0 hPa 0,0 l/m 0,2 km/h (0 Bft) N 0,50 h 2,3 C 11,5 C 1,6 km/h (1 Bft)
19.04.2023 12:00 9,8 C 10,9 C 12,2 C 14,2 C 14,2 C 4,4 C 63 % 37 % 1022,3 hPa 0,0 l/m 0,7 km/h (0 Bft) SO 0,75 h 3,0 C 14,2 C 0,6 km/h (0 Bft)
19.04.2023 13:00 10,9 C 11,0 C 12,3 C 16,0 C 16,0 C 5,1 C 59 % 36 % 1021,9 hPa 0,0 l/m 0,8 km/h (0 Bft) N-NO 1,00 h 3,2 C 16,0 C 1,5 km/h (1 Bft)
19.04.2023 14:00 10,0 C 11,1 C 9,9 C 11,8 C 11,7 C 1,9 C 62 % 50 % 1022,1 hPa 0,0 l/m 0,4 km/h (0 Bft) N 0,25 h 3,1 C 11,7 C 1,9 km/h (1 Bft)
19.04.2023 15:00 9,9 C 11,2 C 9,7 C 12,6 C 12,5 C 2,7 C 63 % 47 % 1021,2 hPa 0,0 l/m 1,5 km/h (1 Bft) O-NO 0,42 h 3,1 C 12,5 C 1,4 km/h (1 Bft)
19.04.2023 16:00 10,6 C 11,4 C 10,5 C 16,5 C 16,5 C 5,9 C 64 % 46 % 1020,4 hPa 0,0 l/m 0,9 km/h (0 Bft) N-NO 1,00 h 4,0 C 16,5 C 2,2 km/h (1 Bft)
19.04.2023 17:00 8,6 C 11,4 C 8,0 C 9,1 C 8,9 C 0,5 C 68 % 52 % 1020,6 hPa 0,0 l/m 0,6 km/h (0 Bft) N 0,08 h 3,0 C 8,9 C 1,9 km/h (1 Bft)
19.04.2023 18:00 7,1 C 11,4 C 7,0 C 7,1 C 6,7 C 0,2 C 77 % 64 % 1020,7 hPa 0,0 l/m 0,2 km/h (0 Bft) O-NO 0,00 h 3,4 C 6,7 C 0,7 km/h (0 Bft)
19.04.2023 19:00 6,5 C 11,4 C 6,4 C 6,8 C 6,8 C 0,3 C 80 % 67 % 1020,3 hPa 0,0 l/m 1,6 km/h (1 Bft) O-NO 0,00 h 3,3 C 6,8 C 1,9 km/h (1 Bft)
19.04.2023 20:00 6,0 C 11,5 C 5,7 C 5,8 C 5,7 C 0,0 C 82 % 70 % 1020,3 hPa 0,0 l/m 0,0 km/h (0 Bft) N 0,00 h 3,1 C 5,7 C 0,0 km/h (0 Bft)
19.04.2023 21:00 5,7 C 11,5 C 5,3 C 5,5 C 5,2 C 0,0 C 83 % 72 % 1020,2 hPa 0,0 l/m 0,0 km/h (0 Bft) N 0,00 h 3,0 C 5,2 C 0,0 km/h (0 Bft)
19.04.2023 22:00 5,4 C 11,5 C 4,8 C 5,2 C 4,9 C 0,0 C 84 % 73 % 1020,2 hPa 0,0 l/m 0,0 km/h (0 Bft) N 0,00 h 2,9 C 4,9 C 0,0 km/h (0 Bft)
19.04.2023 23:00 5,1 C 11,4 C 4,7 C 4,9 C 4,6 C 0,0 C 85 % 74 % 1019,9 hPa 0,0 l/m 0,0 km/h (0 Bft) N 0,00 h 2,7 C 4,6 C 0,0 km/h (0 Bft)
20.04.2023 00:00 5,2 C 11,4 C 5,2 C 5,3 C 5,3 C 0,1 C 86 % 74 % 1020,1 hPa 0,0 l/m 0,0 km/h (0 Bft) N 0,00 h 3,1 C 5,3 C 0,0 km/h (0 Bft)
20.04.2023 01:00 5,3 C 11,4 C 5,1 C 5,2 C 4,9 C 0,0 C 86 % 75 % 1019,4 hPa 0,0 l/m 0,0 km/h (0 Bft) N 0,00 h 3,1 C 4,9 C 0,0 km/h (0 Bft)
20.04.2023 02:00 4,8 C 11,4 C 4,6 C 4,7 C 4,4 C 0,0 C 87 % 77 % 1019,1 hPa 0,0 l/m 1,1 km/h (1 Bft) NO 0,00 h 2,9 C 4,4 C 2,1 km/h (1 Bft)
20.04.2023 03:00 4,5 C 11,3 C 4,4 C 4,4 C 4,1 C 0,0 C 88 % 77 % 1018,7 hPa 0,0 l/m 1,0 km/h (0 Bft) O-NO 0,00 h 2,7 C 4,1 C 1,7 km/h (1 Bft)
20.04.2023 04:00 4,4 C 11,2 C 4,3 C 4,3 C 4,2 C 0,0 C 88 % 77 % 1018,7 hPa 0,0 l/m 0,0 km/h (0 Bft) N 0,00 h 2,6 C 4,2 C 0,0 km/h (0 Bft)
20.04.2023 05:00 4,3 C 11,1 C 3,9 C 4,2 C 3,9 C 0,0 C 88 % 77 % 1018,4 hPa 0,0 l/m 0,0 km/h (0 Bft) N 0,00 h 2,5 C 3,9 C 0,0 km/h (0 Bft)
20.04.2023 06:00 3,6 C 11,1 C 2,9 C 3,3 C 2,8 C 0,0 C 88 % 77 % 1018,7 hPa 0,0 l/m 0,0 km/h (0 Bft) N 0,00 h 1,8 C 2,8 C 0,0 km/h (0 Bft)
20.04.2023 07:00 3,3 C 10,9 C 3,4 C 5,0 C 5,0 C 1,7 C 88 % 76 % 1018,5 hPa 0,0 l/m 1,4 km/h (1 Bft) O-NO 0,42 h 1,6 C 5,0 C 2,9 km/h (1 Bft)
20.04.2023 08:00 2,7 C 10,9 C 3,2 C 3,3 C 3,2 C 0,6 C 89 % 75 % 1019,3 hPa 0,0 l/m 3,7 km/h (1 Bft) NO 0,00 h 1,0 C 2,7 C 5,4 km/h (1 Bft)
20.04.2023 09:00 4,1 C 10,5 C 5,0 C 8,2 C 8,2 C 4,1 C 89 % 71 % 1019,2 hPa 0,0 l/m 2,0 km/h (1 Bft) O-NO 0,75 h 2,4 C 8,2 C 2,1 km/h (1 Bft)
20.04.2023 10:00 6,0 C 10,5 C 6,9 C 9,8 C 9,8 C 3,8 C 86 % 64 % 1019,7 hPa 0,0 l/m 1,6 km/h (1 Bft) O-NO 0,83 h 3,9 C 9,8 C 2,9 km/h (1 Bft)
20.04.2023 11:00 7,1 C 10,5 C 8,3 C 9,6 C 9,6 C 2,5 C 80 % 55 % 1019,5 hPa 0,0 l/m 5,7 km/h (1 Bft) O-NO 0,17 h 3,8 C 9,1 C 8,9 km/h (2 Bft)
20.04.2023 12:00 7,1 C 10,6 C 8,2 C 9,9 C 9,9 C 2,7 C 78 % 54 % 1019,4 hPa 0,0 l/m 3,3 km/h (1 Bft) NO 0,00 h 3,6 C 9,8 C 4,0 km/h (1 Bft)
20.04.2023 13:00 6,7 C 10,7 C 7,5 C 8,4 C 8,4 C 1,7 C 80 % 60 % 1019,3 hPa 0,0 l/m 3,5 km/h (1 Bft) NO 0,00 h 3,6 C 8,2 C 4,9 km/h (1 Bft)
20.04.2023 14:00 7,3 C 10,7 C 8,2 C 9,6 C 9,6 C 2,3 C 82 % 63 % 1019,0 hPa 0,0 l/m 3,3 km/h (1 Bft) NO 0,17 h 4,5 C 9,4 C 5,1 km/h (1 Bft)
20.04.2023 15:00 7,3 C 10,8 C 8,1 C 9,4 C 9,4 C 2,1 C 83 % 64 % 1018,8 hPa 0,0 l/m 4,6 km/h (1 Bft) NO 0,00 h 4,7 C 9,1 C 5,7 km/h (1 Bft)
20.04.2023 16:00 7,3 C 10,9 C 7,8 C 8,4 C 8,4 C 1,0 C 84 % 68 % 1018,5 hPa 0,0 l/m 3,9 km/h (1 Bft) NO 0,00 h 4,9 C 8,3 C 5,3 km/h (1 Bft)
20.04.2023 17:00 8,0 C 11,0 C 8,4 C 9,2 C 9,2 C 1,3 C 85 % 70 % 1018,9 hPa 0,0 l/m 3,8 km/h (1 Bft) O-NO 0,00 h 5,7 C 9,2 C 6,7 km/h (2 Bft)
20.04.2023 18:00 8,5 C 11,1 C 8,7 C 9,2 C 9,2 C 0,7 C 85 % 71 % 1017,9 hPa 0,0 l/m 3,8 km/h (1 Bft) O-NO 0,00 h 6,2 C 8,9 C 4,8 km/h (1 Bft)
20.04.2023 19:00 8,3 C 11,2 C 8,0 C 8,4 C 8,4 C 0,1 C 86 % 75 % 1018,0 hPa 0,0 l/m 0,2 km/h (0 Bft) N 0,00 h 6,0 C 8,4 C 0,4 km/h (0 Bft)
20.04.2023 20:00 7,6 C 11,4 C 6,6 C 7,3 C 6,8 C 0,0 C 86 % 77 % 1017,2 hPa 0,0 l/m 0,0 km/h (0 Bft) N 0,00 h 5,4 C 6,8 C 0,0 km/h (0 Bft)
20.04.2023 21:00 6,5 C 11,5 C 5,1 C 6,2 C 5,6 C 0,0 C 87 % 79 % 1017,8 hPa 0,0 l/m 0,0 km/h (0 Bft) N 0,00 h 4,5 C 5,6 C 0,0 km/h (0 Bft)
20.04.2023 22:00 5,9 C 11,5 C 5,0 C 5,8 C 5,5 C 0,0 C 88 % 87 % 1017,7 hPa 0,0 l/m 0,1 km/h (0 Bft) NO 0,00 h 4,1 C 5,5 C 0,5 km/h (0 Bft)
20.04.2023 23:00 6,7 C 11,4 C 6,2 C 6,6 C 6,4 C 0,0 C 88 % 88 % 1017,8 hPa 0,0 l/m 3,6 km/h (1 Bft) NO 0,00 h 4,9 C 6,4 C 4,1 km/h (1 Bft)
21.04.2023 00:00 7,9 C 11,1 C 7,3 C 7,7 C 7,2 C 0,0 C 88 % 80 % 1017,8 hPa 0,0 l/m 4,1 km/h (1 Bft) NO 0,00 h 6,0 C 7,0 C 4,4 km/h (1 Bft)
21.04.2023 01:00 8,1 C 11,1 C 7,2 C 7,9 C 7,5 C 0,0 C 86 % 74 % 1017,7 hPa 0,0 l/m 2,3 km/h (1 Bft) NO 0,00 h 6,0 C 7,5 C 2,6 km/h (1 Bft)
21.04.2023 02:00 7,0 C 11,2 C 5,4 C 6,7 C 6,1 C 0,0 C 86 % 76 % 1017,2 hPa 0,0 l/m 0,0 km/h (0 Bft) N 0,00 h 4,8 C 6,1 C 0,0 km/h (0 Bft)
21.04.2023 03:00 6,5 C 11,3 C 5,3 C 6,3 C 5,9 C 0,0 C 87 % 79 % 1016,7 hPa 0,0 l/m 0,1 km/h (0 Bft) N 0,00 h 4,5 C 5,9 C 0,0 km/h (0 Bft)
21.04.2023 04:00 5,6 C 11,3 C 3,9 C 5,3 C 4,5 C 0,0 C 87 % 78 % 1016,8 hPa 0,0 l/m 0,0 km/h (0 Bft) N 0,00 h 3,6 C 4,5 C 0,0 km/h (0 Bft)
21.04.2023 05:00 4,4 C 11,2 C 2,6 C 4,1 C 3,5 C 0,0 C 87 % 78 % 1016,5 hPa 0,0 l/m 0,0 km/h (0 Bft) N 0,00 h 2,4 C 3,5 C 0,0 km/h (0 Bft)
21.04.2023 06:00 3,7 C 11,1 C 2,4 C 3,5 C 3,1 C 0,0 C 88 % 81 % 1016,4 hPa 0,0 l/m 0,0 km/h (0 Bft) N 0,00 h 1,9 C 3,1 C 0,0 km/h (0 Bft)
21.04.2023 07:00 4,8 C 11,0 C 5,6 C 10,9 C 10,9 C 6,0 C 89 % 88 % 1016,4 hPa 0,0 l/m 0,0 km/h (0 Bft) N 0,83 h 3,1 C 10,9 C 0,0 km/h (0 Bft)
21.04.2023 08:00 8,7 C 10,7 C 9,2 C 20,1 C 20,1 C 11,4 C 88 % 79 % 1016,4 hPa 0,0 l/m 0,0 km/h (0 Bft) N 1,00 h 6,9 C 20,1 C 0,0 km/h (0 Bft)
21.04.2023 09:00 13,6 C 10,7 C 12,0 C 18,7 C 18,7 C 5,1 C 76 % 63 % 1016,2 hPa 0,0 l/m 0,8 km/h (0 Bft) NO 0,75 h 9,4 C 18,7 C 1,8 km/h (1 Bft)
21.04.2023 10:00 15,6 C 11,0 C 15,4 C 18,2 C 18,2 C 2,5 C 64 % 51 % 1016,1 hPa 0,0 l/m 5,1 km/h (1 Bft) NO 0,00 h 8,9 C 18,2 C 6,7 km/h (2 Bft)
21.04.2023 11:00 17,1 C 11,2 C 19,3 C 19,3 C 19,3 C 2,2 C 58 % 44 % 1015,7 hPa 0,0 l/m 6,6 km/h (2 Bft) NO 0,00 h 8,7 C 19,3 C 11,8 km/h (2 Bft)
21.04.2023 12:00 17,7 C 11,5 C 19,4 C 19,7 C 19,7 C 2,1 C 54 % 41 % 1015,9 hPa 0,0 l/m 8,4 km/h (2 Bft) O-NO 0,00 h 8,3 C 19,7 C 11,5 km/h (2 Bft)
21.04.2023 13:00 18,1 C 11,9 C 19,4 C 21,1 C 21,1 C 3,0 C 51 % 40 % 1015,7 hPa 0,0 l/m 8,8 km/h (2 Bft) NO 0,33 h 7,9 C 21,1 C 11,9 km/h (2 Bft)
21.04.2023 14:00 18,3 C 12,2 C 19,2 C 20,6 C 20,6 C 2,3 C 50 % 38 % 1015,1 hPa 0,0 l/m 9,1 km/h (2 Bft) O-NO 0,08 h 7,6 C 20,6 C 12,0 km/h (2 Bft)
21.04.2023 15:00 18,7 C 12,5 C 19,1 C 21,3 C 21,3 C 2,6 C 48 % 38 % 1015,1 hPa 0,0 l/m 9,8 km/h (2 Bft) NO 0,17 h 7,4 C 21,3 C 13,8 km/h (3 Bft)
21.04.2023 16:00 18,7 C 12,8 C 18,3 C 20,5 C 20,5 C 1,8 C 48 % 38 % 1014,6 hPa 0,0 l/m 7,9 km/h (2 Bft) NO 0,00 h 7,3 C 20,5 C 9,8 km/h (2 Bft)
21.04.2023 17:00 19,2 C 13,0 C 19,0 C 21,4 C 21,4 C 2,3 C 47 % 38 % 1014,5 hPa 0,0 l/m 6,4 km/h (2 Bft) NO 0,00 h 7,6 C 21,4 C 8,5 km/h (2 Bft)
21.04.2023 18:00 18,8 C 13,2 C 17,9 C 20,2 C 20,2 C 1,4 C 46 % 37 % 1014,1 hPa 0,0 l/m 6,6 km/h (2 Bft) O-NO 0,00 h 7,0 C 20,2 C 8,1 km/h (2 Bft)
21.04.2023 19:00 17,6 C 13,4 C 16,1 C 18,6 C 18,6 C 0,9 C 49 % 39 % 1013,7 hPa 0,0 l/m 4,1 km/h (1 Bft) O-NO 0,50 h 6,7 C 18,6 C 5,3 km/h (1 Bft)
21.04.2023 20:00 15,6 C 13,4 C 13,7 C 15,5 C 15,2 C 0,0 C 54 % 44 % 1013,8 hPa 0,0 l/m 1,9 km/h (1 Bft) O-NO 0,00 h 6,3 C 15,2 C 2,3 km/h (1 Bft)
21.04.2023 21:00 13,7 C 13,4 C 12,4 C 13,5 C 13,1 C 0,0 C 62 % 50 % 1013,8 hPa 0,0 l/m 2,5 km/h (1 Bft) NO 0,00 h 6,5 C 13,1 C 2,9 km/h (1 Bft)
21.04.2023 22:00 11,9 C 13,3 C 10,0 C 11,5 C 10,8 C 0,0 C 65 % 54 % 1013,8 hPa 0,0 l/m 0,3 km/h (0 Bft) NO 0,00 h 5,6 C 10,8 C 0,7 km/h (0 Bft)
21.04.2023 23:00 9,2 C 13,3 C 7,1 C 8,6 C 7,4 C 0,0 C 72 % 63 % 1014,1 hPa 0,0 l/m 0,0 km/h (0 Bft) N 0,00 h 4,4 C 7,4 C 0,0 km/h (0 Bft)
22.04.2023 00:00 7,4 C 13,2 C 5,8 C 7,0 C 6,2 C 0,0 C 78 % 67 % 1014,4 hPa 0,0 l/m 0,0 km/h (0 Bft) N 0,00 h 3,9 C 6,2 C 0,0 km/h (0 Bft)
22.04.2023 01:00 6,1 C 13,1 C 4,8 C 5,7 C 5,0 C 0,0 C 81 % 70 % 1014,3 hPa 0,0 l/m 0,0 km/h (0 Bft) N 0,00 h 3,1 C 5,0 C 0,0 km/h (0 Bft)
22.04.2023 02:00 5,7 C 13,0 C 4,5 C 5,6 C 5,4 C 0,0 C 83 % 71 % 1014,1 hPa 0,0 l/m 0,0 km/h (0 Bft) N 0,00 h 3,1 C 5,4 C 0,0 km/h (0 Bft)
22.04.2023 03:00 6,4 C 12,7 C 5,3 C 6,4 C 6,4 C 0,1 C 84 % 71 % 1014,1 hPa 0,0 l/m 0,0 km/h (0 Bft) N 0,00 h 3,9 C 6,4 C 0,1 km/h (0 Bft)
22.04.2023 04:00 7,3 C 12,5 C 5,5 C 7,1 C 6,8 C 0,0 C 81 % 67 % 1013,6 hPa 0,0 l/m 0,0 km/h (0 Bft) N 0,00 h 4,2 C 6,8 C 0,0 km/h (0 Bft)
22.04.2023 05:00 6,0 C 12,5 C 4,0 C 5,6 C 5,0 C 0,0 C 80 % 69 % 1013,3 hPa 0,0 l/m 0,0 km/h (0 Bft) N 0,00 h 2,8 C 5,0 C 0,0 km/h (0 Bft)
22.04.2023 06:00 4,6 C 12,4 C 3,4 C 4,3 C 3,8 C 0,0 C 83 % 73 % 1013,5 hPa 0,0 l/m 0,0 km/h (0 Bft) N 0,00 h 1,9 C 3,8 C 0,0 km/h (0 Bft)
22.04.2023 07:00 5,3 C 12,2 C 6,3 C 12,5 C 12,5 C 7,2 C 86 % 73 % 1013,4 hPa 0,0 l/m 0,0 km/h (0 Bft) N 0,83 h 3,1 C 12,5 C 0,0 km/h (0 Bft)
22.04.2023 08:00 10,1 C 12,0 C 10,5 C 22,4 C 22,4 C 12,3 C 84 % 67 % 1013,7 hPa 0,0 l/m 0,0 km/h (0 Bft) N 1,00 h 7,5 C 22,4 C 0,0 km/h (0 Bft)
22.04.2023 09:00 15,1 C 12,0 C 13,3 C 22,7 C 22,7 C 7,5 C 70 % 61 % 1013,4 hPa 0,0 l/m 0,0 km/h (0 Bft) N 1,00 h 9,8 C 22,7 C 0,0 km/h (0 Bft)
22.04.2023 10:00 18,1 C 12,2 C 16,8 C 23,3 C 23,3 C 5,2 C 57 % 52 % 1013,1 hPa 0,0 l/m 0,3 km/h (0 Bft) NO 1,00 h 9,5 C 23,3 C 1,6 km/h (1 Bft)
22.04.2023 11:00 19,9 C 12,5 C 20,9 C 23,0 C 23,0 C 3,2 C 46 % 38 % 1012,6 hPa 0,0 l/m 2,4 km/h (1 Bft) NO 0,33 h 7,9 C 23,0 C 6,0 km/h (2 Bft)
22.04.2023 12:00 20,5 C 12,8 C 22,0 C 23,9 C 23,9 C 3,4 C 43 % 36 % 1012,5 hPa 0,0 l/m 3,9 km/h (1 Bft) NO 0,42 h 7,4 C 23,9 C 5,0 km/h (1 Bft)
22.04.2023 13:00 21,4 C 13,1 C 22,6 C 26,3 C 26,3 C 4,9 C 40 % 34 % 1012,5 hPa 0,0 l/m 2,6 km/h (1 Bft) O-NO 1,00 h 7,3 C 26,3 C 4,1 km/h (1 Bft)
22.04.2023 14:00 21,5 C 13,4 C 23,2 C 26,0 C 26,0 C 4,5 C 39 % 34 % 1012,5 hPa 0,0 l/m 3,9 km/h (1 Bft) O-NO 1,00 h 6,9 C 26,0 C 6,8 km/h (2 Bft)
22.04.2023 15:00 21,6 C 13,8 C 21,6 C 26,0 C 26,0 C 4,4 C 39 % 34 % 1012,2 hPa 0,0 l/m 3,5 km/h (1 Bft) O-NO 1,00 h 7,1 C 26,0 C 4,6 km/h (1 Bft)
22.04.2023 16:00 21,6 C 14,1 C 21,3 C 25,2 C 25,2 C 3,6 C 40 % 34 % 1011,2 hPa 0,0 l/m 6,0 km/h (2 Bft) O-NO 0,92 h 7,3 C 25,2 C 8,2 km/h (2 Bft)
22.04.2023 17:00 21,4 C 14,4 C 21,0 C 23,3 C 23,3 C 1,9 C 43 % 36 % 1010,6 hPa 0,0 l/m 7,1 km/h (2 Bft) O-NO 0,00 h 8,3 C 23,3 C 8,7 km/h (2 Bft)
22.04.2023 18:00 21,3 C 14,6 C 19,7 C 23,0 C 23,0 C 1,7 C 45 % 41 % 1010,5 hPa 0,0 l/m 0,9 km/h (0 Bft) NO 0,00 h 9,0 C 23,0 C 0,4 km/h (0 Bft)
22.04.2023 19:00 19,7 C 14,8 C 17,7 C 19,7 C 19,6 C 0,0 C 48 % 43 % 1010,2 hPa 0,0 l/m 0,0 km/h (0 Bft) N 0,00 h 8,3 C 19,6 C 0,0 km/h (0 Bft)
22.04.2023 20:00 18,1 C 14,8 C 15,9 C 17,8 C 17,3 C 0,0 C 51 % 45 % 1010,3 hPa 0,0 l/m 0,0 km/h (0 Bft) N 0,00 h 7,9 C 17,3 C 0,0 km/h (0 Bft)
22.04.2023 21:00 16,2 C 14,8 C 13,5 C 15,9 C 15,1 C 0,0 C 55 % 49 % 1010,1 hPa 0,0 l/m 0,0 km/h (0 Bft) N 0,00 h 7,1 C 15,1 C 0,0 km/h (0 Bft)
22.04.2023 22:00 14,8 C 14,8 C 12,4 C 14,5 C 13,7 C 0,0 C 59 % 51 % 1010,1 hPa 0,0 l/m 0,0 km/h (0 Bft) N 0,00 h 7,0 C 13,7 C 0,0 km/h (0 Bft)
22.04.2023 23:00 13,4 C 14,7 C 12,0 C 13,5 C 13,3 C 0,1 C 65 % 56 % 1009,8 hPa 0,0 l/m 0,0 km/h (0 Bft) N 0,00 h 6,9 C 13,3 C 0,0 km/h (0 Bft)
23.04.2023 00:00 13,3 C 14,6 C 12,0 C 13,4 C 13,4 C 0,1 C 68 % 59 % 1009,9 hPa 0,0 l/m 0,0 km/h (0 Bft) N 0,00 h 7,4 C 13,4 C 0,0 km/h (0 Bft)
23.04.2023 01:00 12,7 C 14,5 C 11,9 C 12,8 C 12,8 C 0,0 C 71 % 62 % 1009,5 hPa 0,0 l/m 0,0 km/h (0 Bft) N 0,00 h 7,7 C 12,8 C 0,0 km/h (0 Bft)
23.04.2023 02:00 13,0 C 14,5 C 12,0 C 13,4 C 13,3 C 0,4 C 73 % 66 % 1009,3 hPa 0,0 l/m 0,0 km/h (0 Bft) N 0,00 h 8,2 C 13,3 C 0,0 km/h (0 Bft)
23.04.2023 03:00 14,2 C 14,4 C 12,5 C 14,4 C 14,3 C 0,3 C 67 % 62 % 1009,0 hPa 0,0 l/m 0,1 km/h (0 Bft) N 0,00 h 8,2 C 14,3 C 0,2 km/h (0 Bft)
23.04.2023 04:00 13,7 C 14,4 C 12,1 C 13,5 C 13,1 C 0,0 C 72 % 68 % 1008,6 hPa 0,0 l/m 0,0 km/h (0 Bft) N 0,00 h 8,8 C 13,1 C 0,0 km/h (0 Bft)
23.04.2023 05:00 12,8 C 14,5 C 11,3 C 12,5 C 12,0 C 0,0 C 78 % 72 % 1008,2 hPa 0,0 l/m 0,0 km/h (0 Bft) N 0,00 h 8,9 C 12,0 C 0,0 km/h (0 Bft)
23.04.2023 06:00 11,9 C 14,4 C 11,0 C 11,9 C 11,7 C 0,1 C 81 % 75 % 1008,0 hPa 0,0 l/m 0,3 km/h (0 Bft) SO 0,00 h 8,8 C 11,7 C 0,7 km/h (0 Bft)
23.04.2023 07:00 13,8 C 14,2 C 13,5 C 14,5 C 14,5 C 0,7 C 77 % 66 % 1008,4 hPa 0,0 l/m 0,9 km/h (0 Bft) N-NW 0,00 h 9,7 C 14,5 C 2,5 km/h (1 Bft)
23.04.2023 08:00 14,1 C 14,2 C 14,0 C 14,9 C 14,9 C 0,7 C 75 % 63 % 1008,8 hPa 0,0 l/m 1,2 km/h (1 Bft) S-SW 0,00 h 9,8 C 14,9 C 2,6 km/h (1 Bft)
23.04.2023 09:00 15,3 C 14,2 C 15,9 C 18,7 C 18,7 C 3,5 C 74 % 62 % 1008,8 hPa 0,0 l/m 3,7 km/h (1 Bft) W-SW 0,75 h 10,6 C 18,7 C 7,7 km/h (2 Bft)
23.04.2023 10:00 15,7 C 14,3 C 16,2 C 18,2 C 18,2 C 2,5 C 72 % 59 % 1009,0 hPa 0,0 l/m 4,2 km/h (1 Bft) S 0,33 h 10,6 C 18,2 C 5,4 km/h (1 Bft)
23.04.2023 11:00 13,6 C 14,4 C 13,6 C 14,3 C 14,1 C 0,8 C 76 % 70 % 1009,8 hPa 0,0 l/m 3,9 km/h (1 Bft) SW 0,00 h 9,4 C 14,1 C 7,3 km/h (2 Bft)
23.04.2023 12:00 12,8 C 14,4 C 14,0 C 15,5 C 15,5 C 2,7 C 79 % 67 % 1010,0 hPa 0,0 l/m 1,1 km/h (0 Bft) S 0,42 h 9,3 C 15,5 C 0,8 km/h (0 Bft)
23.04.2023 13:00 15,7 C 14,3 C 17,6 C 21,2 C 21,2 C 5,5 C 69 % 55 % 1009,7 hPa 0,0 l/m 2,5 km/h (1 Bft) SW 1,00 h 10,0 C 21,2 C 4,0 km/h (1 Bft)
23.04.2023 14:00 17,8 C 14,4 C 19,6 C 23,1 C 23,1 C 5,2 C 62 % 49 % 1009,2 hPa 0,0 l/m 2,7 km/h (1 Bft) SW 1,00 h 10,5 C 23,1 C 4,7 km/h (1 Bft)
23.04.2023 15:00 19,1 C 14,6 C 18,9 C 24,7 C 24,7 C 5,6 C 56 % 49 % 1008,5 hPa 0,0 l/m 1,9 km/h (1 Bft) S-SW 1,00 h 10,2 C 24,7 C 2,0 km/h (1 Bft)
23.04.2023 16:00 19,9 C 14,8 C 18,7 C 25,9 C 25,9 C 6,0 C 52 % 47 % 1007,8 hPa 0,0 l/m 0,9 km/h (0 Bft) S 1,00 h 9,8 C 25,9 C 2,8 km/h (1 Bft)
23.04.2023 17:00 19,9 C 15,0 C 18,3 C 22,5 C 22,5 C 2,6 C 51 % 47 % 1007,3 hPa 0,0 l/m 0,9 km/h (0 Bft) W 0,08 h 9,5 C 22,5 C 1,6 km/h (1 Bft)
23.04.2023 18:00 18,6 C 15,1 C 17,8 C 20,6 C 20,6 C 2,1 C 55 % 47 % 1007,0 hPa 0,0 l/m 2,4 km/h (1 Bft) N-NO 0,17 h 9,2 C 20,6 C 4,1 km/h (1 Bft)
23.04.2023 19:00 17,4 C 15,2 C 16,6 C 18,7 C 18,7 C 1,3 C 62 % 53 % 1006,6 hPa 0,0 l/m 1,9 km/h (1 Bft) NO 0,67 h 10,1 C 18,7 C 1,5 km/h (1 Bft)
23.04.2023 20:00 15,1 C 15,3 C 12,9 C 14,7 C 14,0 C 0,0 C 68 % 61 % 1006,3 hPa 0,0 l/m 0,0 km/h (0 Bft) N 0,00 h 9,3 C 14,0 C 0,0 km/h (0 Bft)
23.04.2023 21:00 13,2 C 15,3 C 11,5 C 12,8 C 12,0 C 0,0 C 76 % 68 % 1006,2 hPa 0,0 l/m 0,1 km/h (0 Bft) N 0,00 h 9,0 C 12,0 C 0,0 km/h (0 Bft)
23.04.2023 22:00 12,1 C 15,3 C 10,3 C 11,7 C 10,7 C 0,0 C 79 % 71 % 1005,9 hPa 0,0 l/m 0,0 km/h (0 Bft) N 0,00 h 8,6 C 10,7 C 0,0 km/h (0 Bft)
23.04.2023 23:00 11,1 C 15,3 C 9,4 C 10,7 C 10,0 C 0,0 C 82 % 74 % 1005,4 hPa 0,0 l/m 0,0 km/h (0 Bft) N 0,00 h 8,1 C 10,0 C 0,0 km/h (0 Bft)
Min-Datum _ 20.04.23 20.04.23 21.04.23 20.04.23 20.04.23 17.04.23 22.04.23 22.04.23 23.04.23 - 17.04.23 - - 20.04.23 20.04.23 17.04.23
_ Min-Zeit 08:10 10:05 06:30 08:00 08:00 20:00 14:55 15:05 23:45 - 00:05 - - 08:05 08:00 00:00
Minimum _ 2,6 C 10,4 C 2,2 C 2,5 C 1,9 C 0,0 C 37 % 31 % 1005,2 hPa - 0,0 km/h (0 Bft) - - 0,9 C 0,2 C 0,0 km/h (0 Bft)
Max-Datum _ 22.04.23 23.04.23 22.04.23 22.04.23 22.04.23 22.04.23 17.04.23 17.04.23 18.04.23 17.04.23 21.04.23 - 19.04.23 23.04.23 22.04.23 21.04.23
_ Max-Zeit 13:55 23:30 14:30 13:55 13:55 08:40 00:00 12:25 21:25 00:40 15:05 - 13:46 09:55 13:55 15:35
Maximum _ 22,5 C 15,4 C 23,9 C 27,9 C 27,9 C 13,7 C 89 % 90 % 1026,2 hPa 0,7 l/m 11,1 km/h
NO (2 Bft)
- 0,10 h 11,1 C 27,9 C 23,0 km/h
NO (4 Bft)
Durchschnitt _ 9,9 C 12,2 C 9,7 C 11,3 C 11,2 C 1,5 C 77 % 68 % 1017,9 hPa #3,4 l/m 1,3 km/h (1 Bft) O-NO #30:30 h 5,6 C 11,2 C 2,0 km/h (1 Bft)
2023 www.wetterstation-wechselburg.de